createdAt,value
2023-08-05T00:01:12.762Z,18.39
2023-08-05T00:03:42.374Z,18.38
2023-08-05T00:06:11.418Z,18.43
2023-08-05T00:08:39.080Z,18.40
2023-08-05T00:11:06.481Z,18.45
2023-08-05T00:13:35.916Z,18.47
2023-08-05T00:16:03.894Z,18.47
2023-08-05T00:18:31.593Z,18.45
2023-08-05T00:20:58.831Z,18.39
2023-08-05T00:23:26.791Z,18.26
2023-08-05T00:25:54.073Z,18.29
2023-08-05T00:28:21.755Z,18.29
2023-08-05T00:30:49.156Z,18.20
2023-08-05T00:33:16.783Z,18.15
2023-08-05T00:35:44.141Z,18.18
2023-08-05T00:38:12.067Z,18.17
2023-08-05T00:40:39.494Z,18.18
2023-08-05T00:43:07.219Z,18.17
2023-08-05T00:45:34.642Z,18.17
2023-08-05T00:48:02.915Z,18.10
2023-08-05T00:50:30.940Z,18.09
2023-08-05T00:52:59.179Z,18.02
2023-08-05T00:55:26.379Z,17.96
2023-08-05T00:57:54.050Z,17.98
2023-08-05T01:00:21.632Z,17.85
2023-08-05T01:02:49.423Z,17.90
2023-08-05T01:05:17.184Z,17.82
2023-08-05T01:07:45.619Z,17.75
2023-08-05T01:10:13.226Z,17.70
2023-08-05T01:12:43.254Z,17.68
2023-08-05T01:15:10.871Z,17.69
2023-08-05T01:17:39.250Z,17.64
2023-08-05T01:20:09.397Z,17.63
2023-08-05T01:22:52.987Z,17.61
2023-08-05T01:25:32.950Z,17.62
2023-08-05T01:28:02.592Z,17.60
2023-08-05T01:30:31.421Z,17.62
2023-08-05T01:33:01.179Z,17.61
2023-08-05T01:35:28.888Z,17.60
2023-08-05T01:37:56.750Z,17.60
2023-08-05T01:40:29.535Z,17.56
2023-08-05T01:42:58.530Z,17.60
2023-08-05T01:45:26.259Z,17.53
2023-08-05T01:47:54.309Z,17.44
2023-08-05T01:50:21.690Z,17.44
2023-08-05T01:52:49.350Z,17.43
2023-08-05T01:55:16.740Z,17.41
2023-08-05T01:57:44.622Z,17.35
2023-08-05T02:00:12.333Z,17.34
2023-08-05T02:02:43.267Z,17.29
2023-08-05T02:05:11.132Z,17.30
2023-08-05T02:07:39.152Z,17.25
2023-08-05T02:10:06.977Z,17.29
2023-08-05T02:12:34.697Z,17.36
2023-08-05T02:15:02.207Z,17.30
2023-08-05T02:17:30.083Z,17.40
2023-08-05T02:19:57.526Z,17.36
2023-08-05T02:22:26.036Z,17.38
2023-08-05T02:24:53.485Z,17.38
2023-08-05T02:27:21.292Z,17.39
2023-08-05T02:29:48.514Z,17.32
2023-08-05T02:32:18.350Z,17.29
2023-08-05T02:34:45.727Z,17.31
2023-08-05T02:37:13.591Z,17.29
2023-08-05T02:39:42.246Z,17.24
2023-08-05T02:42:10.108Z,17.23
2023-08-05T02:44:37.737Z,17.17
2023-08-05T02:47:05.655Z,17.18
2023-08-05T02:49:33.851Z,17.09
2023-08-05T02:52:01.544Z,17.08
2023-08-05T02:54:29.164Z,17.08
2023-08-05T02:56:56.818Z,17.03
2023-08-05T02:59:24.196Z,17.01
2023-08-05T03:01:52.004Z,17.01
2023-08-05T03:04:19.953Z,16.96
2023-08-05T03:06:48.567Z,17.00
2023-08-05T03:09:16.506Z,16.96
2023-08-05T03:11:44.218Z,16.99
2023-08-05T03:14:12.588Z,17.00
2023-08-05T03:16:41.311Z,16.91
2023-08-05T03:19:16.055Z,16.92
2023-08-05T03:21:44.315Z,17.00
2023-08-05T03:24:12.316Z,16.97
2023-08-05T03:26:43.151Z,16.83
2023-08-05T03:29:13.141Z,16.91
2023-08-05T03:31:40.855Z,16.89
2023-08-05T03:34:09.079Z,16.95
2023-08-05T03:36:37.810Z,16.94
2023-08-05T03:39:06.494Z,17.00
2023-08-05T03:41:35.402Z,17.04
2023-08-05T03:44:03.241Z,17.09
2023-08-05T03:46:30.987Z,17.15
2023-08-05T03:48:58.478Z,17.17
2023-08-05T03:51:26.307Z,17.24
2023-08-05T03:53:53.643Z,17.28
2023-08-05T03:56:23.487Z,17.33
2023-08-05T03:58:53.111Z,17.41
2023-08-05T04:01:23.388Z,17.44
2023-08-05T04:03:51.603Z,17.50
2023-08-05T04:06:21.925Z,17.61
2023-08-05T04:08:52.261Z,17.64
2023-08-05T04:11:20.090Z,17.69
2023-08-05T04:13:47.383Z,17.73
2023-08-05T04:16:17.916Z,17.78
2023-08-05T04:18:47.723Z,17.85
2023-08-05T04:21:16.315Z,17.87
2023-08-05T04:23:43.742Z,17.98
2023-08-05T04:26:11.542Z,18.00
2023-08-05T04:28:38.939Z,18.11
2023-08-05T04:31:06.775Z,18.14
2023-08-05T04:33:34.208Z,18.28
2023-08-05T04:36:01.974Z,18.40
2023-08-05T04:38:29.390Z,18.45
2023-08-05T04:40:57.120Z,18.57
2023-08-05T04:43:24.435Z,18.72
2023-08-05T04:45:52.254Z,18.90
2023-08-05T04:48:19.700Z,19.05
2023-08-05T04:50:47.452Z,19.05
2023-08-05T04:53:16.602Z,19.19
2023-08-05T04:55:44.299Z,19.24
2023-08-05T04:58:12.557Z,19.11
2023-08-05T05:00:40.519Z,19.13
2023-08-05T05:03:09.058Z,19.15
2023-08-05T05:05:37.181Z,19.07
2023-08-05T05:08:04.660Z,19.07
2023-08-05T05:10:32.423Z,19.07
2023-08-05T05:13:00.070Z,19.10
2023-08-05T05:15:27.856Z,19.10
2023-08-05T05:17:55.164Z,19.12
2023-08-05T05:20:22.854Z,19.11
2023-08-05T05:22:50.746Z,19.15
2023-08-05T05:25:18.405Z,19.15
2023-08-05T05:27:45.789Z,19.15
2023-08-05T05:30:13.523Z,19.10
2023-08-05T05:32:40.877Z,19.11
2023-08-05T05:35:09.026Z,19.20
2023-08-05T05:37:36.394Z,19.18
2023-08-05T05:40:04.602Z,19.21
2023-08-05T05:42:32.328Z,19.19
2023-08-05T05:45:01.662Z,19.26
2023-08-05T05:47:29.592Z,19.41
2023-08-05T05:49:57.358Z,19.54
2023-08-05T05:52:24.780Z,19.74
2023-08-05T05:54:52.469Z,20.05
2023-08-05T05:57:20.907Z,20.18
2023-08-05T05:59:48.795Z,20.27
2023-08-05T06:02:16.132Z,20.28
2023-08-05T06:04:45.768Z,20.30
2023-08-05T06:07:13.258Z,20.32
2023-08-05T06:09:42.420Z,20.41
2023-08-05T06:12:11.983Z,20.40
2023-08-05T06:14:39.808Z,20.47
2023-08-05T06:17:07.761Z,20.50
2023-08-05T06:19:35.445Z,20.55
2023-08-05T06:22:02.913Z,20.60
2023-08-05T06:24:30.535Z,20.62
2023-08-05T06:26:57.907Z,20.66
2023-08-05T06:29:25.598Z,20.62
2023-08-05T06:31:54.869Z,20.60
2023-08-05T06:34:23.517Z,20.46
2023-08-05T06:36:50.951Z,20.37
2023-08-05T06:39:18.455Z,20.28
2023-08-05T06:41:45.762Z,20.28
2023-08-05T06:44:13.466Z,20.31
2023-08-05T06:46:40.921Z,20.34
2023-08-05T06:49:10.788Z,20.36
2023-08-05T06:51:38.820Z,20.28
2023-08-05T06:54:06.514Z,20.26
2023-08-05T06:56:33.850Z,20.32
2023-08-05T06:59:01.639Z,20.40
2023-08-05T07:01:29.242Z,20.43
2023-08-05T07:03:57.027Z,20.41
2023-08-05T07:06:24.476Z,20.42
2023-08-05T07:08:52.917Z,20.32
2023-08-05T07:11:20.229Z,20.24
2023-08-05T07:13:49.730Z,20.19
2023-08-05T07:16:18.678Z,20.20
2023-08-05T07:18:46.308Z,20.20
2023-08-05T07:21:14.079Z,20.14
2023-08-05T07:23:42.010Z,19.76
2023-08-05T07:26:09.401Z,19.78
2023-08-05T07:28:37.272Z,19.81
2023-08-05T07:31:08.444Z,19.83
2023-08-05T07:33:36.087Z,19.83
2023-08-05T07:36:10.981Z,19.77
2023-08-05T07:38:44.971Z,19.79
2023-08-05T07:41:13.937Z,19.71
2023-08-05T07:43:43.507Z,19.70
2023-08-05T07:46:14.704Z,19.75
2023-08-05T07:48:43.669Z,19.75
2023-08-05T07:51:11.052Z,19.83
2023-08-05T07:53:38.797Z,19.81
2023-08-05T07:56:13.138Z,19.79
2023-08-05T07:58:43.800Z,19.77
2023-08-05T08:01:13.658Z,19.79
2023-08-05T08:03:44.542Z,19.76
2023-08-05T08:06:15.855Z,19.83
2023-08-05T08:08:44.355Z,19.87
2023-08-05T08:11:12.190Z,19.90
2023-08-05T08:13:40.499Z,19.91
2023-08-05T08:16:08.059Z,19.85
2023-08-05T08:18:35.783Z,19.81
2023-08-05T08:21:05.259Z,19.71
2023-08-05T08:23:33.092Z,19.68
2023-08-05T08:26:01.010Z,19.66
2023-08-05T08:28:29.048Z,19.63
2023-08-05T08:30:57.787Z,19.65
2023-08-05T08:33:27.836Z,19.53
2023-08-05T08:35:55.465Z,19.51
2023-08-05T08:38:26.826Z,19.42
2023-08-05T08:40:58.919Z,19.35
2023-08-05T08:43:28.301Z,19.34
2023-08-05T08:45:56.668Z,19.31
2023-08-05T08:48:25.333Z,19.31
2023-08-05T08:50:54.183Z,19.28
2023-08-05T08:53:23.136Z,19.29
2023-08-05T08:55:50.596Z,19.22
2023-08-05T08:58:18.247Z,19.11
2023-08-05T09:00:46.554Z,18.95
2023-08-05T09:03:14.739Z,18.84
2023-08-05T09:05:46.700Z,18.84
2023-08-05T09:08:14.796Z,18.77
2023-08-05T09:10:44.993Z,18.72
2023-08-05T09:13:13.179Z,18.72
2023-08-05T09:15:40.827Z,18.70
2023-08-05T09:18:09.914Z,18.70
2023-08-05T09:20:38.727Z,18.57
2023-08-05T09:23:11.998Z,18.53
2023-08-05T09:25:40.176Z,18.47
2023-08-05T09:28:08.219Z,18.42
2023-08-05T09:30:36.480Z,18.30
2023-08-05T09:33:04.676Z,18.14
2023-08-05T09:35:32.340Z,18.04
2023-08-05T09:38:02.115Z,18.11
2023-08-05T09:40:33.497Z,18.05
2023-08-05T09:43:03.949Z,17.98
2023-08-05T09:45:35.046Z,17.92
2023-08-05T09:48:10.258Z,17.94
2023-08-05T09:50:39.027Z,17.90
2023-08-05T09:53:10.692Z,17.90
2023-08-05T09:55:39.726Z,17.81
2023-08-05T09:58:11.353Z,17.78
2023-08-05T10:00:42.212Z,17.70
2023-08-05T10:03:15.484Z,17.67
2023-08-05T10:05:45.943Z,17.69
2023-08-05T10:08:20.983Z,17.65
2023-08-05T10:10:48.602Z,17.65
2023-08-05T10:13:19.213Z,17.60
2023-08-05T10:15:52.224Z,17.53
2023-08-05T10:18:20.312Z,17.45
2023-08-05T10:20:54.919Z,17.48
2023-08-05T10:23:26.411Z,17.46
2023-08-05T10:26:00.640Z,17.48
2023-08-05T10:28:40.761Z,17.54
2023-08-05T10:31:24.712Z,17.81
2023-08-05T10:34:18.124Z,18.09
2023-08-05T10:36:49.773Z,18.37
2023-08-05T10:39:42.206Z,18.62
2023-08-05T10:42:31.394Z,18.72
2023-08-05T10:45:00.162Z,18.78
2023-08-05T10:47:28.322Z,18.86
2023-08-05T10:50:00.963Z,18.86
2023-08-05T10:52:29.681Z,18.74
2023-08-05T10:54:58.571Z,18.68
2023-08-05T10:57:44.127Z,18.68
2023-08-05T11:00:21.613Z,18.63
2023-08-05T11:02:50.938Z,18.66
2023-08-05T11:05:19.184Z,18.60
2023-08-05T11:07:47.298Z,18.60
2023-08-05T11:10:15.093Z,18.68
2023-08-05T11:12:42.432Z,18.66
2023-08-05T11:15:10.846Z,18.78
2023-08-05T11:17:57.326Z,18.85
2023-08-05T11:20:32.776Z,18.86
2023-08-05T11:23:00.925Z,19.06
2023-08-05T11:25:29.909Z,19.20
2023-08-05T11:27:57.393Z,19.37
2023-08-05T11:30:24.849Z,19.52
2023-08-05T11:32:59.709Z,19.63
2023-08-05T11:35:27.956Z,19.69
2023-08-05T11:37:55.807Z,19.71
2023-08-05T11:40:23.751Z,19.77
2023-08-05T11:42:51.702Z,19.76
2023-08-05T11:45:19.909Z,19.58
2023-08-05T11:47:47.365Z,19.68
2023-08-05T11:50:15.534Z,19.80
2023-08-05T11:52:42.922Z,19.70
2023-08-05T11:55:11.199Z,19.78
2023-08-05T11:57:38.931Z,19.80
2023-08-05T12:00:10.514Z,20.03
2023-08-05T12:02:39.266Z,20.09
2023-08-05T12:05:11.626Z,20.27
2023-08-05T12:07:43.536Z,20.32
2023-08-05T12:10:17.347Z,20.35
2023-08-05T12:12:46.271Z,20.33
2023-08-05T12:15:29.301Z,20.31
2023-08-05T12:20:29.007Z,20.17
2023-08-05T12:22:57.994Z,20.28
2023-08-05T12:25:27.299Z,20.14
2023-08-05T12:27:55.055Z,20.14
2023-08-05T12:30:23.221Z,20.07
2023-08-05T12:32:51.109Z,20.23
2023-08-05T12:35:18.937Z,20.23
2023-08-05T12:37:46.381Z,20.39
2023-08-05T12:40:14.762Z,20.57
2023-08-05T12:42:43.157Z,20.55
2023-08-05T12:45:11.136Z,20.56
2023-08-05T12:47:40.205Z,20.59
2023-08-05T12:50:08.871Z,20.60
2023-08-05T12:52:36.554Z,20.67
2023-08-05T12:55:04.475Z,20.67
2023-08-05T12:57:33.609Z,20.60
2023-08-05T13:00:02.539Z,20.62
2023-08-05T13:02:30.391Z,20.48
2023-08-05T13:04:58.339Z,20.47
2023-08-05T13:07:26.035Z,20.61
2023-08-05T13:09:53.839Z,20.62
2023-08-05T13:12:21.141Z,20.67
2023-08-05T13:14:48.860Z,20.67
2023-08-05T13:17:16.185Z,20.60
2023-08-05T13:19:44.704Z,20.40
2023-08-05T13:22:12.082Z,20.50
2023-08-05T13:24:39.946Z,20.28
2023-08-05T13:27:07.377Z,20.16
2023-08-05T13:29:36.160Z,20.16
2023-08-05T13:32:03.490Z,20.16
2023-08-05T13:34:31.154Z,20.09
2023-08-05T13:36:58.681Z,20.04
2023-08-05T13:39:26.723Z,19.99
2023-08-05T13:41:58.941Z,19.96
2023-08-05T13:44:27.972Z,20.01
2023-08-05T13:46:55.831Z,19.93
2023-08-05T13:49:23.473Z,19.92
2023-08-05T13:51:52.832Z,19.94
2023-08-05T13:54:20.763Z,19.95
2023-08-05T13:56:48.243Z,19.92
2023-08-05T13:59:16.019Z,19.92
2023-08-05T14:01:46.486Z,19.96
2023-08-05T14:04:14.072Z,19.97
2023-08-05T14:06:41.550Z,19.99
2023-08-05T14:09:09.523Z,19.99
2023-08-05T14:11:37.458Z,19.96
2023-08-05T14:14:05.420Z,19.93
2023-08-05T14:16:33.007Z,19.96
2023-08-05T14:19:01.596Z,19.99
2023-08-05T14:21:29.175Z,19.95
2023-08-05T14:23:57.103Z,19.95
2023-08-05T14:26:24.853Z,20.02
2023-08-05T14:28:52.662Z,20.04
2023-08-05T14:31:20.099Z,20.03
2023-08-05T14:33:47.876Z,20.08
2023-08-05T14:36:15.617Z,20.06
2023-08-05T14:38:43.391Z,20.03
2023-08-05T14:41:17.146Z,20.00
2023-08-05T14:43:45.066Z,19.98
2023-08-05T14:46:12.842Z,20.01
2023-08-05T14:48:40.804Z,19.97
2023-08-05T14:51:08.300Z,19.98
2023-08-05T14:53:35.880Z,20.13
2023-08-05T14:56:03.382Z,20.10
2023-08-05T14:58:31.168Z,20.10
2023-08-05T15:01:04.947Z,20.11
2023-08-05T15:03:32.895Z,20.11
2023-08-05T15:06:00.391Z,20.10
2023-08-05T15:08:28.093Z,20.15
2023-08-05T15:11:01.894Z,20.14
2023-08-05T15:13:29.864Z,20.23
2023-08-05T15:15:57.269Z,20.25
2023-08-05T15:18:25.052Z,20.14
2023-08-05T15:20:53.005Z,20.00
2023-08-05T15:25:51.808Z,20.03
2023-08-05T15:28:19.879Z,20.07
2023-08-05T15:30:47.648Z,19.98
2023-08-05T15:33:16.689Z,19.93
2023-08-05T15:35:45.101Z,19.87
2023-08-05T15:38:12.735Z,19.99
2023-08-05T15:40:40.114Z,19.95
2023-08-05T15:43:07.860Z,19.89
2023-08-05T15:45:35.192Z,19.89
2023-08-05T15:48:02.887Z,19.83
2023-08-05T15:50:30.299Z,19.83
2023-08-05T15:52:57.883Z,19.91
2023-08-05T15:55:25.714Z,19.86
2023-08-05T15:57:53.710Z,19.86
2023-08-05T16:00:21.007Z,19.79
2023-08-05T16:02:50.256Z,19.76
2023-08-05T16:05:17.839Z,19.69
2023-08-05T16:07:45.679Z,19.67
2023-08-05T16:10:13.152Z,19.69
2023-08-05T16:12:41.150Z,19.52
2023-08-05T16:15:09.405Z,19.55
2023-08-05T16:17:37.094Z,19.53
2023-08-05T16:20:04.894Z,19.59
2023-08-05T16:22:32.603Z,19.61
2023-08-05T16:24:59.922Z,19.60
2023-08-05T16:27:27.658Z,19.48
2023-08-05T16:29:55.085Z,19.40
2023-08-05T16:32:23.202Z,19.46
2023-08-05T16:34:50.460Z,19.43
2023-08-05T16:37:18.214Z,19.41
2023-08-05T16:39:45.643Z,19.38
2023-08-05T16:42:13.310Z,19.37
2023-08-05T16:44:40.766Z,19.41
2023-08-05T16:47:08.860Z,19.33
2023-08-05T16:49:36.285Z,19.32
2023-08-05T16:52:04.267Z,19.31
2023-08-05T16:54:31.414Z,19.27
2023-08-05T16:56:59.122Z,19.35
2023-08-05T16:59:26.349Z,19.28
2023-08-05T17:01:54.172Z,19.28
2023-08-05T17:04:21.898Z,19.29
2023-08-05T17:06:49.679Z,19.21
2023-08-05T17:09:18.272Z,19.20
2023-08-05T17:11:46.003Z,19.16
2023-08-05T17:14:13.460Z,19.17
2023-08-05T17:16:41.130Z,19.12
2023-08-05T17:19:08.650Z,19.07
2023-08-05T17:21:36.384Z,19.07
2023-08-05T17:24:04.231Z,19.07
2023-08-05T17:26:31.999Z,19.04
2023-08-05T17:28:59.685Z,19.00
2023-08-05T17:31:27.462Z,18.95
2023-08-05T17:33:54.757Z,18.95
2023-08-05T17:36:23.023Z,18.98
2023-08-05T17:38:50.558Z,18.88
2023-08-05T17:41:18.026Z,18.88
2023-08-05T17:43:45.412Z,18.85
2023-08-05T17:46:13.537Z,18.82
2023-08-05T17:48:40.900Z,18.84
2023-08-05T17:51:08.627Z,18.80
2023-08-05T17:53:36.024Z,18.84
2023-08-05T17:56:04.155Z,18.84
2023-08-05T17:58:31.519Z,18.76
2023-08-05T18:00:59.261Z,18.73
2023-08-05T18:03:26.651Z,18.67
2023-08-05T18:06:04.435Z,18.70
2023-08-05T18:08:39.261Z,18.63
2023-08-05T18:11:07.020Z,18.66
2023-08-05T18:13:35.094Z,18.65
2023-08-05T18:16:03.676Z,18.61
2023-08-05T18:18:31.011Z,18.62
2023-08-05T18:20:58.711Z,18.61
2023-08-05T18:23:26.021Z,18.66
2023-08-05T18:25:55.217Z,18.60
2023-08-05T18:28:22.727Z,18.62
2023-08-05T18:30:54.149Z,18.60
2023-08-05T18:33:22.459Z,18.53
2023-08-05T18:35:50.389Z,18.62
2023-08-05T18:38:17.950Z,18.62
2023-08-05T18:40:45.631Z,18.61
2023-08-05T18:43:13.084Z,18.60
2023-08-05T18:45:41.586Z,18.55
2023-08-05T18:48:08.990Z,18.56
2023-08-05T18:50:37.271Z,18.53
2023-08-05T18:53:04.707Z,18.58
2023-08-05T18:55:32.341Z,18.52
2023-08-05T18:57:59.640Z,18.51
2023-08-05T19:00:27.205Z,18.52
2023-08-05T19:02:54.619Z,18.57
2023-08-05T19:05:22.745Z,18.51
2023-08-05T19:07:50.070Z,18.53
2023-08-05T19:10:17.999Z,18.52
2023-08-05T19:12:46.621Z,18.56
2023-08-05T19:15:14.300Z,18.52
2023-08-05T19:17:41.575Z,18.46
2023-08-05T19:20:09.769Z,18.56
2023-08-05T19:22:37.138Z,18.52
2023-08-05T19:25:05.436Z,18.55
2023-08-05T19:27:44.139Z,18.58
2023-08-05T19:30:22.270Z,18.58
2023-08-05T19:32:50.905Z,18.59
2023-08-05T19:35:19.765Z,18.57
2023-08-05T19:37:47.042Z,18.62
2023-08-05T19:40:14.847Z,18.63
2023-08-05T19:42:42.492Z,18.54
2023-08-05T19:45:10.319Z,18.54
2023-08-05T19:47:42.428Z,18.52
2023-08-05T19:50:10.605Z,18.51
2023-08-05T19:52:39.377Z,18.40
2023-08-05T19:55:07.442Z,18.47
2023-08-05T19:57:35.013Z,18.46
2023-08-05T20:00:04.693Z,18.45
2023-08-05T20:02:36.277Z,18.39
2023-08-05T20:05:05.845Z,18.42
2023-08-05T20:07:34.605Z,18.41
2023-08-05T20:10:02.341Z,18.40
2023-08-05T20:12:30.102Z,18.41
2023-08-05T20:14:58.008Z,18.47
2023-08-05T20:17:25.890Z,18.47
2023-08-05T20:19:55.070Z,18.48
2023-08-05T20:22:22.296Z,18.42
2023-08-05T20:25:00.447Z,18.42
2023-08-05T20:27:29.176Z,18.40
2023-08-05T20:29:57.518Z,18.40
2023-08-05T20:32:24.933Z,18.42
2023-08-05T20:34:56.473Z,18.43
2023-08-05T20:37:24.544Z,18.42
2023-08-05T20:39:55.444Z,18.41
2023-08-05T20:42:25.763Z,18.41
2023-08-05T20:44:53.438Z,18.49
2023-08-05T20:47:21.116Z,18.46
2023-08-05T20:49:49.495Z,18.45
2023-08-05T20:52:16.874Z,18.50
2023-08-05T20:54:44.416Z,18.52
2023-08-05T20:57:11.724Z,18.51
2023-08-05T20:59:39.542Z,18.56
2023-08-05T21:02:07.102Z,18.54
2023-08-05T21:04:35.450Z,18.50
2023-08-05T21:07:02.843Z,18.58
2023-08-05T21:09:30.618Z,18.54
2023-08-05T21:11:57.832Z,18.58
2023-08-05T21:14:25.581Z,18.60
2023-08-05T21:16:53.854Z,18.58
2023-08-05T21:19:21.587Z,18.54
2023-08-05T21:21:49.302Z,18.55
2023-08-05T21:24:17.108Z,18.56
2023-08-05T21:26:44.355Z,18.55
2023-08-05T21:29:12.020Z,18.54
2023-08-05T21:31:39.304Z,18.53
2023-08-05T21:34:08.168Z,18.55
2023-08-05T21:36:35.492Z,18.52
2023-08-05T21:39:04.203Z,18.52
2023-08-05T21:41:31.656Z,18.56
2023-08-05T21:43:59.231Z,18.53
2023-08-05T21:46:26.382Z,18.53
2023-08-05T21:48:54.096Z,18.53
2023-08-05T21:51:21.414Z,18.51
2023-08-05T21:53:49.132Z,18.53
2023-08-05T21:56:16.498Z,18.54
2023-08-05T21:58:44.104Z,18.46
2023-08-05T22:01:11.529Z,18.48
2023-08-05T22:03:39.463Z,18.48
2023-08-05T22:06:11.221Z,18.49
2023-08-05T22:08:40.344Z,18.44
2023-08-05T22:11:09.737Z,18.51
2023-08-05T22:13:37.960Z,18.42
2023-08-05T22:16:05.473Z,18.46
2023-08-05T22:18:33.324Z,18.49
2023-08-05T22:21:00.640Z,18.47
2023-08-05T22:23:28.341Z,18.48
2023-08-05T22:25:55.651Z,18.53
2023-08-05T22:28:23.368Z,18.52
2023-08-05T22:30:58.131Z,18.54
2023-08-05T22:33:25.839Z,18.53
2023-08-05T22:35:53.141Z,18.62
2023-08-05T22:38:20.880Z,18.67
2023-08-05T22:40:48.171Z,18.68
2023-08-05T22:43:15.787Z,18.72
2023-08-05T22:45:43.138Z,18.74
2023-08-05T22:48:10.941Z,18.70
2023-08-05T22:50:41.426Z,18.65
2023-08-05T22:53:09.167Z,18.59
2023-08-05T22:55:37.329Z,18.56
2023-08-05T22:58:05.121Z,18.58
2023-08-05T23:00:32.610Z,18.48
2023-08-05T23:03:00.581Z,18.50
2023-08-05T23:05:29.191Z,18.43
2023-08-05T23:07:56.900Z,18.43
2023-08-05T23:10:24.394Z,18.39
2023-08-05T23:12:52.021Z,18.38
2023-08-05T23:15:19.361Z,18.43
2023-08-05T23:17:47.045Z,18.42
2023-08-05T23:20:14.412Z,18.33
2023-08-05T23:22:43.996Z,18.35
2023-08-05T23:25:11.464Z,18.30
2023-08-05T23:27:38.972Z,18.27
2023-08-05T23:30:07.010Z,18.27
2023-08-05T23:32:34.783Z,18.18
2023-08-05T23:35:02.140Z,18.20
2023-08-05T23:37:30.138Z,18.23
2023-08-05T23:39:57.513Z,18.27
2023-08-05T23:42:25.145Z,18.25
2023-08-05T23:44:52.558Z,18.22
2023-08-05T23:47:20.241Z,18.28
2023-08-05T23:49:47.596Z,18.24
2023-08-05T23:52:15.221Z,18.27
2023-08-05T23:54:42.625Z,18.35
2023-08-05T23:57:10.298Z,18.40
2023-08-05T23:59:37.818Z,18.38
